C.de Malaga — EAJW — position and weather

sailwx.info

Track history (hours):
 
Tides and Currents Weather Stations Pressure Air Temp Water Temp Dewpoint Dewpoint Depression Visibility Wind Speed Wind Dir Waves Ship Positions

C.de Malaga

Last reported at 2018-May-21 10:59 UTC. Time now 2018-May-21 11:19 UTC.
Position N 36°08' W 005°24'.

Length 137 m; draft 3.7 m.

Type: Passenger vessel. MMSI: 224549000.

Date/timePositionNaut miles runAvg speedWind from/ knotsBaromVisibWave heightAir tempDewpointWater temp
2018-May-21 10:59N 36°08' W 005°24'714.1
2018-May-21 10:30N 36°01' W 005°22'714.5
2018-May-21 10:00N 35°56' W 005°29'1 0.4
2018-May-21 07:34N 35°57' W 005°30'113.8
2018-May-21 07:30N 35°57' W 005°29'713.3
2018-May-21 07:00N 36°03' W 005°25'5 4.0
2018-May-21 05:44N 36°08' W 005°26'0 0.0
2018-May-21 04:59N 36°08' W 005°26'0 0.6
2018-May-21 04:30N 36°08' W 005°26'0 0.0
2018-May-21 04:00N 36°08' W 005°26'0 0.0
2018-May-21 03:30N 36°08' W 005°26'0 0.0
2018-May-21 03:00N 36°08' W 005°26'0 0.0
2018-May-21 02:30N 36°08' W 005°26'0 0.0
2018-May-21 02:00N 36°08' W 005°26'0 0.0
2018-May-21 01:30N 36°08' W 005°26'0 0.0
2018-May-21 01:00N 36°08' W 005°26'0 0.0
2018-May-21 00:30N 36°08' W 005°26'0 0.0
2018-May-21 00:00N 36°08' W 005°26'0 0.0
2018-May-20 23:30N 36°08' W 005°26'0 0.0
2018-May-20 23:00N 36°08' W 005°26'0 0.0
2018-May-20 22:30N 36°08' W 005°26'0 0.0
2018-May-20 22:00N 36°08' W 005°26'0 0.0
2018-May-20 21:17N 36°08' W 005°26'0 0.0
2018-May-20 21:00N 36°08' W 005°26'0 0.0
2018-May-20 19:45N 36°08' W 005°26'0 0.0
2018-May-20 19:15N 36°08' W 005°26'0 0.0
2018-May-20 19:00N 36°08' W 005°26'0 0.0
2018-May-20 16:08N 36°08' W 005°26'0 0.0
2018-May-20 16:00N 36°08' W 005°26'0 0.0
2018-May-20 15:30N 36°08' W 005°26'0 0.0
2018-May-20 15:00N 36°08' W 005°26'0 0.0
2018-May-20 14:30N 36°08' W 005°26'0 0.0
2018-May-20 14:00N 36°08' W 005°26'0 0.0
2018-May-20 13:30N 36°08' W 005°26'0 0.0
2018-May-20 13:00N 36°08' W 005°26'0 0.0
2018-May-20 12:30N 36°08' W 005°26'0 0.0
2018-May-20 12:00N 36°08' W 005°26'0 0.0
2018-May-20 11:30N 36°08' W 005°26'0 0.0
2018-May-20 11:00N 36°08' W 005°26'0 0.0
2018-May-20 10:30N 36°08' W 005°26'0 0.0
2018-May-20 10:00N 36°08' W 005°26'0 0.0
2018-May-20 09:30N 36°08' W 005°26'0 0.0
2018-May-20 09:00N 36°08' W 005°26'0 0.0
2018-May-20 08:30N 36°08' W 005°26'0 0.3
2018-May-20 07:37N 36°08' W 005°26'0 0.0
2018-May-20 07:30N 36°08' W 005°26'0 0.0
2018-May-20 07:00N 36°08' W 005°26'0 0.1
2018-May-20 06:29N 36°08' W 005°26'2 4.4
2018-May-20 06:01N 36°08' W 005°24'612.8
2018-May-20 05:31N 36°02' W 005°24'814.8
2018-May-20 04:58N 35°55' W 005°30'3 1.2
2018-May-20 02:46N 35°53' W 005°31'1 2.3
2018-May-20 02:28N 35°54' W 005°31'612.9
2018-May-20 02:00N 35°59' W 005°28'713.1
2018-May-20 01:30N 36°04' W 005°24'4 7.8
2018-May-20 01:00N 36°08' W 005°26'0 0.3
2018-May-20 00:30N 36°08' W 005°26'0 0.2
2018-May-20 00:00N 36°08' W 005°26'2 3.4
2018-May-19 23:30N 36°08' W 005°24'714.7
2018-May-19 23:01N 36°01' W 005°24'916.4
2018-May-19 22:29N 35°54' W 005°31'1 1.0
2018-May-19 21:21N 35°53' W 005°31'4 8.5
2018-May-19 20:56N 35°56' W 005°30'410.1
2018-May-19 20:30N 35°59' W 005°27'611.7
2018-May-19 20:00N 36°05' W 005°24'4 7.0
2018-May-19 19:28N 36°08' W 005°26'0 0.0
2018-May-19 19:01N 36°08' W 005°26'0 0.0
2018-May-19 18:16N 36°08' W 005°26'0 0.0
2018-May-19 18:00N 36°08' W 005°26'2 4.3
2018-May-19 17:30N 36°09' W 005°24'714.0
2018-May-19 17:00N 36°02' W 005°24'714.2
2018-May-19 16:30N 35°57' W 005°30'0 0.1
2018-May-19 14:19N 35°57' W 005°29'413.3
2018-May-19 14:00N 35°60' W 005°26'713.7
2018-May-19 13:30N 36°06' W 005°23'3 1.4
2018-May-19 11:36N 36°08' W 005°26'2 4.6
2018-May-19 11:13N 36°08' W 005°24'413.1
2018-May-19 10:55N 36°04' W 005°24'614.9
2018-May-19 10:30N 35°58' W 005°26'4 1.3
2018-May-19 07:29N 35°57' W 005°30'611.7
2018-May-19 07:00N 36°01' W 005°26'713.4
2018-May-19 06:30N 36°07' W 005°24'2 4.1
2018-May-19 06:00N 36°08' W 005°26'0 0.0
2018-May-19 05:30N 36°08' W 005°26'0 0.0
2018-May-19 05:00N 36°08' W 005°26'0 0.0
2018-May-19 04:30N 36°08' W 005°26'0 0.0
2018-May-19 04:00N 36°08' W 005°26'0 0.0
2018-May-19 03:30N 36°08' W 005°26'0 0.0
2018-May-19 03:00N 36°08' W 005°26'0 0.0
2018-May-19 02:30N 36°08' W 005°26'0 0.0
2018-May-19 02:00N 36°08' W 005°26'0 0.0
2018-May-19 01:30N 36°08' W 005°26'0 0.0
2018-May-19 01:00N 36°08' W 005°26'0 0.0
2018-May-19 00:30N 36°08' W 005°26'0 0.1
2018-May-18 23:27N 36°08' W 005°26'3 6.0
2018-May-18 23:00N 36°06' W 005°23'714.6
2018-May-18 22:30N 35°59' W 005°25'8 3.1
2018-May-18 20:03N 35°54' W 005°31'312.5
2018-May-18 19:50N 35°56' W 005°30'310.6
2018-May-18 19:30N 35°59' W 005°28'510.9
2018-May-18 19:00N 36°03' W 005°23'611.8
2018-May-18 18:30N 36°09' W 005°26'1 1.6
2018-May-18 17:58N 36°08' W 005°26'0 0.0
2018-May-18 17:15N 36°08' W 005°26'0 0.9
2018-May-18 17:00N 36°08' W 005°26'4 7.8
2018-May-18 16:30N 36°05' W 005°23'714.2
2018-May-18 16:00N 35°58' W 005°27'3 1.2
2018-May-18 13:42N 35°56' W 005°30'313.9
2018-May-18 13:30N 35°59' W 005°28'713.8
2018-May-18 13:00N 36°05' W 005°24'4 7.7
2018-May-18 12:30N 36°08' W 005°26'0 0.1
2018-May-18 11:57N 36°08' W 005°26'0 0.0
2018-May-18 11:16N 36°08' W 005°26'1 4.7
2018-May-18 11:01N 36°09' W 005°25'713.5
2018-May-18 10:30N 36°02' W 005°23'815.1
2018-May-18 10:00N 35°56' W 005°29'1 0.5
2018-May-18 07:51N 35°56' W 005°30'411.6
2018-May-18 07:30N 35°59' W 005°27'510.2
2018-May-18 07:00N 36°04' W 005°24'5 3.8
2018-May-18 05:48N 36°08' W 005°26'0 0.0
2018-May-18 05:30N 36°08' W 005°26'0 0.0
2018-May-18 04:58N 36°08' W 005°26'0 0.1
2018-May-18 04:30N 36°08' W 005°26'0 0.0
2018-May-18 04:00N 36°08' W 005°26'0 0.0
2018-May-18 03:30N 36°08' W 005°26'0 0.0
2018-May-18 03:00N 36°08' W 005°26'0 0.0
2018-May-18 02:30N 36°08' W 005°26'0 0.0
2018-May-18 02:00N 36°08' W 005°26'0 0.0
2018-May-18 01:30N 36°08' W 005°26'0 0.0
2018-May-18 01:00N 36°08' W 005°26'0 0.0
2018-May-18 00:30N 36°08' W 005°26'2 4.8
2018-May-18 00:00N 36°07' W 005°24'714.0
2018-May-17 23:30N 35°60' W 005°25'814.5
2018-May-17 22:59N 35°54' W 005°31'0 0.2
2018-May-17 21:06N 35°53' W 005°31'0 2.7
2018-May-17 20:57N 35°54' W 005°31'3 5.7
2018-May-17 20:29N 35°56' W 005°31'510.4
2018-May-17 20:00N 35°60' W 005°26'4 8.3
2018-May-17 19:30N 36°03' W 005°23'611.1
2018-May-17 18:58N 36°09' W 005°26'1 1.5
2018-May-17 18:30N 36°08' W 005°26'0 0.0
2018-May-17 18:00N 36°08' W 005°26'1 2.4
2018-May-17 17:30N 36°09' W 005°26'613.1
2018-May-17 17:00N 36°03' W 005°23'714.2
2018-May-17 16:30N 35°57' W 005°29'5 2.1
2018-May-17 14:10N 35°53' W 005°31'1 5.7
2018-May-17 14:00N 35°54' W 005°31'5 9.8
2018-May-17 13:30N 35°58' W 005°29'713.4
2018-May-17 13:00N 36°04' W 005°24'510.3
2018-May-17 12:30N 36°08' W 005°26'1 1.0
2018-May-17 11:52N 36°08' W 005°26'0 0.0
2018-May-17 11:24N 36°08' W 005°26'1 1.4
2018-May-17 11:00N 36°08' W 005°26'2 4.6
2018-May-17 10:31N 36°07' W 005°24'714.2
2018-May-17 09:59N 35°60' W 005°25'816.1
2018-May-17 09:29N 35°54' W 005°31'1 0.5
2018-May-17 07:48N 35°53' W 005°31'412.3
2018-May-17 07:30N 35°57' W 005°30'612.0
2018-May-17 07:01N 36°01' W 005°26'713.2
2018-May-17 06:30N 36°08' W 005°24'2 3.5
2018-May-17 06:00N 36°08' W 005°26'0 0.0
2018-May-17 05:30N 36°08' W 005°26'0 0.0
2018-May-17 04:59N 36°08' W 005°26'0 0.1
2018-May-17 04:19N 36°08' W 005°26'0 0.0
2018-May-17 04:00N 36°08' W 005°26'0 0.0
2018-May-17 03:30N 36°08' W 005°26'0 0.0
2018-May-17 02:59N 36°08' W 005°26'2 3.9
2018-May-17 02:31N 36°08' W 005°24'714.2
2018-May-17 02:00N 36°01' W 005°24'713.7
2018-May-17 01:30N 35°56' W 005°30'3 1.2
2018-May-16 23:00N 35°53' W 005°31'612.0
2018-May-16 22:30N 35°59' W 005°29'713.2
2018-May-16 22:01N 36°04' W 005°24'4 8.9
2018-May-16 21:30N 36°08' W 005°26'0 0.6
2018-May-16 21:00N 36°08' W 005°26'0 0.0
2018-May-16 20:17N 36°08' W 005°26'0 0.0
2018-May-16 19:57N 36°08' W 005°26'3 5.7
2018-May-16 19:30N 36°07' W 005°24'714.1
2018-May-16 19:00N 35°60' W 005°24'816.0
2018-May-16 18:30N 35°54' W 005°31'1 0.2
2018-May-16 14:23N 35°53' W 005°31'1 3.6
2018-May-16 14:00N 35°54' W 005°32'612.4
2018-May-16 13:30N 35°59' W 005°27'713.9
2018-May-16 13:00N 36°06' W 005°24'3 1.6
2018-May-16 11:02N 36°08' W 005°26'0 1.5
2018-May-16 11:00N 36°08' W 005°26'3 5.4
2018-May-16 10:30N 36°06' W 005°24'713.8
2018-May-16 10:00N 35°59' W 005°25'5 1.9
2018-May-16 07:34N 35°57' W 005°30'112.0
2018-May-16 07:30N 35°58' W 005°29'612.6
2018-May-16 07:00N 36°03' W 005°25'5 2.5
2018-May-16 04:49N 36°08' W 005°26'0 0.0
2018-May-16 00:40N 36°08' W 005°26'1 5.1
2018-May-16 00:30N 36°09' W 005°26'5 9.5
2018-May-16 00:00N 36°05' W 005°23'713.3
2018-May-15 23:30N 35°58' W 005°26'4 1.6
2018-May-15 21:06N 35°56' W 005°30'114.5
2018-May-15 21:01N 35°57' W 005°29'612.5
2018-May-15 20:31N 36°01' W 005°23'714.1
2018-May-15 20:00N 36°08' W 005°24'2 2.2
2018-May-15 19:16N 36°08' W 005°26'0 0.0
2018-May-15 18:57N 36°08' W 005°26'0 0.0
2018-May-15 18:27N 36°08' W 005°26'1 2.3
2018-May-15 17:58N 36°09' W 005°26'3 7.3
2018-May-15 17:30N 36°06' W 005°24'714.8
2018-May-15 17:00N 35°59' W 005°26'7 2.5
2018-May-15 14:20N 35°54' W 005°31'412.5
2018-May-15 14:00N 35°58' W 005°29'713.6
2018-May-15 13:30N 36°03' W 005°24'611.2
2018-May-15 13:00N 36°09' W 005°26'1 1.4
2018-May-15 12:21N 36°08' W 005°26'0 0.0
2018-May-15 12:00N 36°08' W 005°26'0 0.0
2018-May-15 11:30N 36°08' W 005°26'3 5.2
2018-May-15 11:00N 36°06' W 005°24'714.0
2018-May-15 10:30N 35°60' W 005°24'5 1.8
2018-May-15 07:31N 35°56' W 005°30'012.0
2018-May-15 07:30N 35°56' W 005°30'611.6
2018-May-15 06:59N 36°01' W 005°25'714.1
2018-May-15 06:30N 36°08' W 005°24'2 2.6
2018-May-15 05:47N 36°08' W 005°26'0 0.0
2018-May-15 05:28N 36°08' W 005°26'0 0.0
2018-May-15 04:57N 36°08' W 005°26'0 0.0
2018-May-14 23:43N 36°08' W 005°26'2 6.2
2018-May-14 23:26N 36°08' W 005°24'614.2
2018-May-14 23:00N 36°02' W 005°24'10 3.9
2018-May-14 20:24N 35°53' W 005°31'512.8
2018-May-14 20:00N 35°58' W 005°29'612.5
2018-May-14 19:30N 36°03' W 005°24'611.2
2018-May-14 19:00N 36°09' W 005°26'1 1.4
2018-May-14 18:30N 36°08' W 005°26'0 0.0
2018-May-14 17:58N 36°08' W 005°26'1 2.5
2018-May-14 17:29N 36°09' W 005°25'613.3
2018-May-14 17:00N 36°03' W 005°24'815.2
2018-May-14 16:30N 35°56' W 005°29'2 0.9
2018-May-14 14:19N 35°57' W 005°31'413.0
2018-May-14 14:00N 35°59' W 005°27'612.3
2018-May-14 13:30N 36°05' W 005°24'4 1.8
2018-May-14 11:33N 36°08' W 005°26'1 6.4
2018-May-14 11:23N 36°09' W 005°26'3 8.4
2018-May-14 11:01N 36°06' W 005°24'715.0
2018-May-14 10:31N 35°59' W 005°25'8 3.0
2018-May-14 07:56N 35°53' W 005°31'5 9.8
2018-May-14 07:27N 35°58' W 005°30'512.1
2018-May-14 07:00N 36°01' W 005°25'6 1.7
2018-May-14 03:10N 36°08' W 005°26'0 0.0
2018-May-14 03:00N 36°08' W 005°26'0 0.0
2018-May-14 02:30N 36°08' W 005°26'0 0.0
2018-May-14 02:00N 36°08' W 005°26'0 0.0
2018-May-14 01:27N 36°08' W 005°26'0 0.9
2018-May-14 01:00N 36°08' W 005°26'3 5.5
2018-May-14 00:30N 36°07' W 005°23'714.7
2018-May-14 00:00N 35°59' W 005°25'5 1.9
2018-May-13 21:20N 35°56' W 005°30'413.5
2018-May-13 21:00N 35°60' W 005°27'713.3
2018-May-13 20:30N 36°06' W 005°24'3 3.8
2018-May-13 19:47N 36°08' W 005°26'0 0.0
2018-May-13 18:56N 36°08' W 005°26'1 2.2
2018-May-13 18:30N 36°09' W 005°26'5 9.9
2018-May-13 18:00N 36°04' W 005°24'815.1
2018-May-13 17:30N 35°57' W 005°27'510.7
2018-May-13 17:00N 35°53' W 005°31'0 0.0
2018-May-13 16:28N 35°53' W 005°31'0 0.0
2018-May-13 15:57N 35°53' W 005°31'2 1.8
2018-May-13 14:53N 35°55' W 005°31'512.1
2018-May-13 14:30N 35°59' W 005°28'611.3
2018-May-13 14:00N 36°03' W 005°24'612.2
2018-May-13 13:30N 36°09' W 005°26'1 2.1
2018-May-13 12:58N 36°08' W 005°26'0 0.0
2018-May-13 12:29N 36°08' W 005°26'0 0.0
2018-May-13 11:48N 36°08' W 005°26'1 4.8
2018-May-13 11:30N 36°09' W 005°25'714.0
2018-May-13 11:00N 36°02' W 005°24'7 2.5
2018-May-13 08:22N 35°57' W 005°29'513.0
2018-May-13 08:00N 36°01' W 005°26'713.3
2018-May-13 07:30N 36°07' W 005°24'2 1.6
2018-May-13 06:21N 36°08' W 005°26'2 5.6
2018-May-13 06:00N 36°07' W 005°24'714.6
2018-May-13 05:30N 36°00' W 005°25'917.7
2018-May-13 05:00N 35°53' W 005°31'0 0.5
2018-May-13 04:26N 35°53' W 005°31'0 0.1
2018-May-13 03:57N 35°53' W 005°31'4 8.5
2018-May-13 03:30N 35°56' W 005°30'612.3
2018-May-13 03:00N 36°01' W 005°25'713.5
2018-May-13 02:31N 36°08' W 005°24'2 3.9
2018-May-13 02:00N 36°08' W 005°26'0 0.0
2018-May-13 01:30N 36°08' W 005°26'0 0.0
2018-May-13 01:00N 36°08' W 005°26'1 1.9
2018-May-13 00:30N 36°09' W 005°26'5 9.3
2018-May-13 00:01N 36°04' W 005°24'815.2
2018-May-12 23:31N 35°57' W 005°27'610.6
2018-May-12 22:59N 35°53' W 005°31'0 0.0
2018-May-12 22:30N 35°53' W 005°31'0 0.0
2018-May-12 22:00N 35°53' W 005°31'0 0.1
2018-May-12 21:27N 35°53' W 005°31'4 6.6
2018-May-12 20:48N 35°57' W 005°31'413.1
2018-May-12 20:30N 35°59' W 005°27'713.3
2018-May-12 20:00N 36°06' W 005°24'3 1.6
2018-May-12 18:04N 36°08' W 005°26'1 7.9
2018-May-12 17:55N 36°09' W 005°26'3 7.0
2018-May-12 17:30N 36°07' W 005°24'714.3
2018-May-12 17:00N 35°60' W 005°25'8 6.6
2018-May-12 15:44N 35°53' W 005°31'0 0.0
2018-May-12 15:30N 35°53' W 005°31'4 2.6
2018-May-12 14:05N 35°56' W 005°30'113.3
2018-May-12 14:00N 35°57' W 005°29'611.6
2018-May-12 13:31N 36°01' W 005°24'612.9
2018-May-12 13:00N 36°08' W 005°24'2 1.0
2018-May-12 11:00N 36°09' W 005°26'612.3
2018-May-12 10:30N 36°03' W 005°23'714.5
2018-May-12 10:00N 35°57' W 005°28'2 0.6
2018-May-12 07:22N 35°57' W 005°30'412.4
2018-May-12 07:00N 36°00' W 005°27'612.9
2018-May-12 06:30N 36°06' W 005°24'3 2.8
2018-May-12 05:36N 36°08' W 005°26'0 0.0
2018-May-12 05:24N 36°08' W 005°26'0 0.0
2018-May-12 04:55N 36°08' W 005°26'0 0.0
2018-May-12 04:28N 36°08' W 005°26'0 0.0
2018-May-12 04:00N 36°08' W 005°26'0 0.0
2018-May-12 03:30N 36°08' W 005°26'0 0.0
2018-May-12 03:00N 36°08' W 005°26'0 0.0
2018-May-12 02:30N 36°08' W 005°26'0 0.0
2018-May-12 02:00N 36°08' W 005°26'0 0.0
2018-May-12 01:30N 36°08' W 005°26'0 0.0
2018-May-12 01:00N 36°08' W 005°26'0 0.0
2018-May-12 00:20N 36°08' W 005°26'0 0.0
2018-May-11 23:56N 36°08' W 005°26'2 3.7
2018-May-11 23:30N 36°09' W 005°25'713.7
2018-May-11 23:00N 36°02' W 005°24'8 2.7
2018-May-11 20:12N 35°56' W 005°30'313.4
2018-May-11 20:00N 35°59' W 005°28'613.0
2018-May-11 19:31N 36°04' W 005°24'4 8.9
2018-May-11 19:00N 36°08' W 005°26'0 0.3
2018-May-11 17:43N 36°08' W 005°26'1 5.9
2018-May-11 17:30N 36°09' W 005°26'510.9
2018-May-11 17:00N 36°04' W 005°23'815.1
2018-May-11 16:30N 35°57' W 005°28'1 0.5
2018-May-11 13:58N 35°57' W 005°29'612.6
2018-May-11 13:31N 36°02' W 005°25'713.4
2018-May-11 13:00N 36°08' W 005°24'2 0.8
2018-May-11 11:04N 36°08' W 005°26'  
Track history (hours):
 
Tides and Currents Weather Stations Pressure Air Temp Water Temp Dewpoint Dewpoint Depression Visibility Wind Speed Wind Dir Waves Ship Positions

C.de Malaga

Last reported at 2018-May-21 10:59 UTC. Time now 2018-May-21 11:19 UTC.
Position N 36°08' W 005°24'.

Length 137 m; draft 3.7 m.

Type: Passenger vessel. MMSI: 224549000.

Date/timePositionNaut miles runAvg speedWind from/ knotsBaromVisibWave heightAir tempDewpointWater temp
2018-May-21 10:59N 36°08' W 005°24'714.1
2018-May-21 10:30N 36°01' W 005°22'714.5
2018-May-21 10:00N 35°56' W 005°29'1 0.4
2018-May-21 07:34N 35°57' W 005°30'113.8
2018-May-21 07:30N 35°57' W 005°29'713.3
2018-May-21 07:00N 36°03' W 005°25'5 4.0
2018-May-21 05:44N 36°08' W 005°26'0 0.0
2018-May-21 04:59N 36°08' W 005°26'0 0.6
2018-May-21 04:30N 36°08' W 005°26'0 0.0
2018-May-21 04:00N 36°08' W 005°26'0 0.0
2018-May-21 03:30N 36°08' W 005°26'0 0.0
2018-May-21 03:00N 36°08' W 005°26'0 0.0
2018-May-21 02:30N 36°08' W 005°26'0 0.0
2018-May-21 02:00N 36°08' W 005°26'0 0.0
2018-May-21 01:30N 36°08' W 005°26'0 0.0
2018-May-21 01:00N 36°08' W 005°26'0 0.0
2018-May-21 00:30N 36°08' W 005°26'0 0.0
2018-May-21 00:00N 36°08' W 005°26'0 0.0
2018-May-20 23:30N 36°08' W 005°26'0 0.0
2018-May-20 23:00N 36°08' W 005°26'0 0.0
2018-May-20 22:30N 36°08' W 005°26'0 0.0
2018-May-20 22:00N 36°08' W 005°26'0 0.0
2018-May-20 21:17N 36°08' W 005°26'0 0.0
2018-May-20 21:00N 36°08' W 005°26'0 0.0
2018-May-20 19:45N 36°08' W 005°26'0 0.0
2018-May-20 19:15N 36°08' W 005°26'0 0.0
2018-May-20 19:00N 36°08' W 005°26'0 0.0
2018-May-20 16:08N 36°08' W 005°26'0 0.0
2018-May-20 16:00N 36°08' W 005°26'0 0.0
2018-May-20 15:30N 36°08' W 005°26'0 0.0
2018-May-20 15:00N 36°08' W 005°26'0 0.0
2018-May-20 14:30N 36°08' W 005°26'0 0.0
2018-May-20 14:00N 36°08' W 005°26'0 0.0
2018-May-20 13:30N 36°08' W 005°26'0 0.0
2018-May-20 13:00N 36°08' W 005°26'0 0.0
2018-May-20 12:30N 36°08' W 005°26'0 0.0
2018-May-20 12:00N 36°08' W 005°26'0 0.0
2018-May-20 11:30N 36°08' W 005°26'0 0.0
2018-May-20 11:00N 36°08' W 005°26'0 0.0
2018-May-20 10:30N 36°08' W 005°26'0 0.0
2018-May-20 10:00N 36°08' W 005°26'0 0.0
2018-May-20 09:30N 36°08' W 005°26'0 0.0
2018-May-20 09:00N 36°08' W 005°26'0 0.0
2018-May-20 08:30N 36°08' W 005°26'0 0.3
2018-May-20 07:37N 36°08' W 005°26'0 0.0
2018-May-20 07:30N 36°08' W 005°26'0 0.0
2018-May-20 07:00N 36°08' W 005°26'0 0.1
2018-May-20 06:29N 36°08' W 005°26'2 4.4
2018-May-20 06:01N 36°08' W 005°24'612.8
2018-May-20 05:31N 36°02' W 005°24'814.8
2018-May-20 04:58N 35°55' W 005°30'3 1.2
2018-May-20 02:46N 35°53' W 005°31'1 2.3
2018-May-20 02:28N 35°54' W 005°31'612.9
2018-May-20 02:00N 35°59' W 005°28'713.1
2018-May-20 01:30N 36°04' W 005°24'4 7.8
2018-May-20 01:00N 36°08' W 005°26'0 0.3
2018-May-20 00:30N 36°08' W 005°26'0 0.2
2018-May-20 00:00N 36°08' W 005°26'2 3.4
2018-May-19 23:30N 36°08' W 005°24'714.7
2018-May-19 23:01N 36°01' W 005°24'916.4
2018-May-19 22:29N 35°54' W 005°31'1 1.0
2018-May-19 21:21N 35°53' W 005°31'4 8.5
2018-May-19 20:56N 35°56' W 005°30'410.1
2018-May-19 20:30N 35°59' W 005°27'611.7
2018-May-19 20:00N 36°05' W 005°24'4 7.0
2018-May-19 19:28N 36°08' W 005°26'0 0.0
2018-May-19 19:01N 36°08' W 005°26'0 0.0
2018-May-19 18:16N 36°08' W 005°26'0 0.0
2018-May-19 18:00N 36°08' W 005°26'2 4.3
2018-May-19 17:30N 36°09' W 005°24'714.0
2018-May-19 17:00N 36°02' W 005°24'714.2
2018-May-19 16:30N 35°57' W 005°30'0 0.1
2018-May-19 14:19N 35°57' W 005°29'413.3
2018-May-19 14:00N 35°60' W 005°26'713.7
2018-May-19 13:30N 36°06' W 005°23'3 1.4
2018-May-19 11:36N 36°08' W 005°26'2 4.6
2018-May-19 11:13N 36°08' W 005°24'413.1
2018-May-19 10:55N 36°04' W 005°24'614.9
2018-May-19 10:30N 35°58' W 005°26'4 1.3
2018-May-19 07:29N 35°57' W 005°30'611.7
2018-May-19 07:00N 36°01' W 005°26'713.4
2018-May-19 06:30N 36°07' W 005°24'2 4.1
2018-May-19 06:00N 36°08' W 005°26'0 0.0
2018-May-19 05:30N 36°08' W 005°26'0 0.0
2018-May-19 05:00N 36°08' W 005°26'0 0.0
2018-May-19 04:30N 36°08' W 005°26'0 0.0
2018-May-19 04:00N 36°08' W 005°26'0 0.0
2018-May-19 03:30N 36°08' W 005°26'0 0.0
2018-May-19 03:00N 36°08' W 005°26'0 0.0
2018-May-19 02:30N 36°08' W 005°26'0 0.0
2018-May-19 02:00N 36°08' W 005°26'0 0.0
2018-May-19 01:30N 36°08' W 005°26'0 0.0
2018-May-19 01:00N 36°08' W 005°26'0 0.0
2018-May-19 00:30N 36°08' W 005°26'0 0.1
2018-May-18 23:27N 36°08' W 005°26'3 6.0
2018-May-18 23:00N 36°06' W 005°23'714.6
2018-May-18 22:30N 35°59' W 005°25'8 3.1
2018-May-18 20:03N 35°54' W 005°31'312.5
2018-May-18 19:50N 35°56' W 005°30'310.6
2018-May-18 19:30N 35°59' W 005°28'510.9
2018-May-18 19:00N 36°03' W 005°23'611.8
2018-May-18 18:30N 36°09' W 005°26'1 1.6
2018-May-18 17:58N 36°08' W 005°26'0 0.0
2018-May-18 17:15N 36°08' W 005°26'0 0.9
2018-May-18 17:00N 36°08' W 005°26'4 7.8
2018-May-18 16:30N 36°05' W 005°23'714.2
2018-May-18 16:00N 35°58' W 005°27'3 1.2
2018-May-18 13:42N 35°56' W 005°30'313.9
2018-May-18 13:30N 35°59' W 005°28'713.8
2018-May-18 13:00N 36°05' W 005°24'4 7.7
2018-May-18 12:30N 36°08' W 005°26'0 0.1
2018-May-18 11:57N 36°08' W 005°26'0 0.0
2018-May-18 11:16N 36°08' W 005°26'1 4.7
2018-May-18 11:01N 36°09' W 005°25'713.5
2018-May-18 10:30N 36°02' W 005°23'815.1
2018-May-18 10:00N 35°56' W 005°29'1 0.5
2018-May-18 07:51N 35°56' W 005°30'411.6
2018-May-18 07:30N 35°59' W 005°27'510.2
2018-May-18 07:00N 36°04' W 005°24'5 3.8
2018-May-18 05:48N 36°08' W 005°26'0 0.0
2018-May-18 05:30N 36°08' W 005°26'0 0.0
2018-May-18 04:58N 36°08' W 005°26'0 0.1
2018-May-18 04:30N 36°08' W 005°26'0 0.0
2018-May-18 04:00N 36°08' W 005°26'0 0.0
2018-May-18 03:30N 36°08' W 005°26'0 0.0
2018-May-18 03:00N 36°08' W 005°26'0 0.0
2018-May-18 02:30N 36°08' W 005°26'0 0.0
2018-May-18 02:00N 36°08' W 005°26'0 0.0
2018-May-18 01:30N 36°08' W 005°26'0 0.0
2018-May-18 01:00N 36°08' W 005°26'0 0.0
2018-May-18 00:30N 36°08' W 005°26'2 4.8
2018-May-18 00:00N 36°07' W 005°24'714.0
2018-May-17 23:30N 35°60' W 005°25'814.5
2018-May-17 22:59N 35°54' W 005°31'0 0.2
2018-May-17 21:06N 35°53' W 005°31'0 2.7
2018-May-17 20:57N 35°54' W 005°31'3 5.7
2018-May-17 20:29N 35°56' W 005°31'510.4
2018-May-17 20:00N 35°60' W 005°26'4 8.3
2018-May-17 19:30N 36°03' W 005°23'611.1
2018-May-17 18:58N 36°09' W 005°26'1 1.5
2018-May-17 18:30N 36°08' W 005°26'0 0.0
2018-May-17 18:00N 36°08' W 005°26'1 2.4
2018-May-17 17:30N 36°09' W 005°26'613.1
2018-May-17 17:00N 36°03' W 005°23'714.2
2018-May-17 16:30N 35°57' W 005°29'5 2.1
2018-May-17 14:10N 35°53' W 005°31'1 5.7
2018-May-17 14:00N 35°54' W 005°31'5 9.8
2018-May-17 13:30N 35°58' W 005°29'713.4
2018-May-17 13:00N 36°04' W 005°24'510.3
2018-May-17 12:30N 36°08' W 005°26'1 1.0
2018-May-17 11:52N 36°08' W 005°26'0 0.0
2018-May-17 11:24N 36°08' W 005°26'1 1.4
2018-May-17 11:00N 36°08' W 005°26'2 4.6
2018-May-17 10:31N 36°07' W 005°24'714.2
2018-May-17 09:59N 35°60' W 005°25'816.1
2018-May-17 09:29N 35°54' W 005°31'1 0.5
2018-May-17 07:48N 35°53' W 005°31'412.3
2018-May-17 07:30N 35°57' W 005°30'612.0
2018-May-17 07:01N 36°01' W 005°26'713.2
2018-May-17 06:30N 36°08' W 005°24'2 3.5
2018-May-17 06:00N 36°08' W 005°26'0 0.0
2018-May-17 05:30N 36°08' W 005°26'0 0.0
2018-May-17 04:59N 36°08' W 005°26'0 0.1
2018-May-17 04:19N 36°08' W 005°26'0 0.0
2018-May-17 04:00N 36°08' W 005°26'0 0.0
2018-May-17 03:30N 36°08' W 005°26'0 0.0
2018-May-17 02:59N 36°08' W 005°26'2 3.9
2018-May-17 02:31N 36°08' W 005°24'714.2
2018-May-17 02:00N 36°01' W 005°24'713.7
2018-May-17 01:30N 35°56' W 005°30'3 1.2
2018-May-16 23:00N 35°53' W 005°31'612.0
2018-May-16 22:30N 35°59' W 005°29'713.2
2018-May-16 22:01N 36°04' W 005°24'4 8.9
2018-May-16 21:30N 36°08' W 005°26'0 0.6
2018-May-16 21:00N 36°08' W 005°26'0 0.0
2018-May-16 20:17N 36°08' W 005°26'0 0.0
2018-May-16 19:57N 36°08' W 005°26'3 5.7
2018-May-16 19:30N 36°07' W 005°24'714.1
2018-May-16 19:00N 35°60' W 005°24'816.0
2018-May-16 18:30N 35°54' W 005°31'1 0.2
2018-May-16 14:23N 35°53' W 005°31'1 3.6
2018-May-16 14:00N 35°54' W 005°32'612.4
2018-May-16 13:30N 35°59' W 005°27'713.9
2018-May-16 13:00N 36°06' W 005°24'3 1.6
2018-May-16 11:02N 36°08' W 005°26'0 1.5
2018-May-16 11:00N 36°08' W 005°26'3 5.4
2018-May-16 10:30N 36°06' W 005°24'713.8
2018-May-16 10:00N 35°59' W 005°25'5 1.9
2018-May-16 07:34N 35°57' W 005°30'112.0
2018-May-16 07:30N 35°58' W 005°29'612.6
2018-May-16 07:00N 36°03' W 005°25'5 2.5
2018-May-16 04:49N 36°08' W 005°26'0 0.0
2018-May-16 00:40N 36°08' W 005°26'1 5.1
2018-May-16 00:30N 36°09' W 005°26'5 9.5
2018-May-16 00:00N 36°05' W 005°23'713.3
2018-May-15 23:30N 35°58' W 005°26'4 1.6
2018-May-15 21:06N 35°56' W 005°30'114.5
2018-May-15 21:01N 35°57' W 005°29'612.5
2018-May-15 20:31N 36°01' W 005°23'714.1
2018-May-15 20:00N 36°08' W 005°24'2 2.2
2018-May-15 19:16N 36°08' W 005°26'0 0.0
2018-May-15 18:57N 36°08' W 005°26'0 0.0
2018-May-15 18:27N 36°08' W 005°26'1 2.3
2018-May-15 17:58N 36°09' W 005°26'3 7.3
2018-May-15 17:30N 36°06' W 005°24'714.8
2018-May-15 17:00N 35°59' W 005°26'7 2.5
2018-May-15 14:20N 35°54' W 005°31'412.5
2018-May-15 14:00N 35°58' W 005°29'713.6
2018-May-15 13:30N 36°03' W 005°24'611.2
2018-May-15 13:00N 36°09' W 005°26'1 1.4
2018-May-15 12:21N 36°08' W 005°26'0 0.0
2018-May-15 12:00N 36°08' W 005°26'0 0.0
2018-May-15 11:30N 36°08' W 005°26'3 5.2
2018-May-15 11:00N 36°06' W 005°24'714.0
2018-May-15 10:30N 35°60' W 005°24'5 1.8
2018-May-15 07:31N 35°56' W 005°30'012.0
2018-May-15 07:30N 35°56' W 005°30'611.6
2018-May-15 06:59N 36°01' W 005°25'714.1
2018-May-15 06:30N 36°08' W 005°24'2 2.6
2018-May-15 05:47N 36°08' W 005°26'0 0.0
2018-May-15 05:28N 36°08' W 005°26'0 0.0
2018-May-15 04:57N 36°08' W 005°26'0 0.0
2018-May-14 23:43N 36°08' W 005°26'2 6.2
2018-May-14 23:26N 36°08' W 005°24'614.2
2018-May-14 23:00N 36°02' W 005°24'10 3.9
2018-May-14 20:24N 35°53' W 005°31'512.8
2018-May-14 20:00N 35°58' W 005°29'612.5
2018-May-14 19:30N 36°03' W 005°24'611.2
2018-May-14 19:00N 36°09' W 005°26'1 1.4
2018-May-14 18:30N 36°08' W 005°26'0 0.0
2018-May-14 17:58N 36°08' W 005°26'1 2.5
2018-May-14 17:29N 36°09' W 005°25'613.3
2018-May-14 17:00N 36°03' W 005°24'815.2
2018-May-14 16:30N 35°56' W 005°29'2 0.9
2018-May-14 14:19N 35°57' W 005°31'413.0
2018-May-14 14:00N 35°59' W 005°27'612.3
2018-May-14 13:30N 36°05' W 005°24'4 1.8
2018-May-14 11:33N 36°08' W 005°26'1 6.4
2018-May-14 11:23N 36°09' W 005°26'3 8.4
2018-May-14 11:01N 36°06' W 005°24'715.0
2018-May-14 10:31N 35°59' W 005°25'8 3.0
2018-May-14 07:56N 35°53' W 005°31'5 9.8
2018-May-14 07:27N 35°58' W 005°30'512.1
2018-May-14 07:00N 36°01' W 005°25'6 1.7
2018-May-14 03:10N 36°08' W 005°26'0 0.0
2018-May-14 03:00N 36°08' W 005°26'0 0.0
2018-May-14 02:30N 36°08' W 005°26'0 0.0
2018-May-14 02:00N 36°08' W 005°26'0 0.0
2018-May-14 01:27N 36°08' W 005°26'0 0.9
2018-May-14 01:00N 36°08' W 005°26'3 5.5
2018-May-14 00:30N 36°07' W 005°23'714.7
2018-May-14 00:00N 35°59' W 005°25'5 1.9
2018-May-13 21:20N 35°56' W 005°30'413.5
2018-May-13 21:00N 35°60' W 005°27'713.3
2018-May-13 20:30N 36°06' W 005°24'3 3.8
2018-May-13 19:47N 36°08' W 005°26'0 0.0
2018-May-13 18:56N 36°08' W 005°26'1 2.2
2018-May-13 18:30N 36°09' W 005°26'5 9.9
2018-May-13 18:00N 36°04' W 005°24'815.1
2018-May-13 17:30N 35°57' W 005°27'510.7
2018-May-13 17:00N 35°53' W 005°31'0 0.0
2018-May-13 16:28N 35°53' W 005°31'0 0.0
2018-May-13 15:57N 35°53' W 005°31'2 1.8
2018-May-13 14:53N 35°55' W 005°31'512.1
2018-May-13 14:30N 35°59' W 005°28'611.3
2018-May-13 14:00N 36°03' W 005°24'612.2
2018-May-13 13:30N 36°09' W 005°26'1 2.1
2018-May-13 12:58N 36°08' W 005°26'0 0.0
2018-May-13 12:29N 36°08' W 005°26'0 0.0
2018-May-13 11:48N 36°08' W 005°26'1 4.8
2018-May-13 11:30N 36°09' W 005°25'714.0
2018-May-13 11:00N 36°02' W 005°24'7 2.5
2018-May-13 08:22N 35°57' W 005°29'513.0
2018-May-13 08:00N 36°01' W 005°26'713.3
2018-May-13 07:30N 36°07' W 005°24'2 1.6
2018-May-13 06:21N 36°08' W 005°26'2 5.6
2018-May-13 06:00N 36°07' W 005°24'714.6
2018-May-13 05:30N 36°00' W 005°25'917.7
2018-May-13 05:00N 35°53' W 005°31'0 0.5
2018-May-13 04:26N 35°53' W 005°31'0 0.1
2018-May-13 03:57N 35°53' W 005°31'4 8.5
2018-May-13 03:30N 35°56' W 005°30'612.3
2018-May-13 03:00N 36°01' W 005°25'713.5
2018-May-13 02:31N 36°08' W 005°24'2 3.9
2018-May-13 02:00N 36°08' W 005°26'0 0.0
2018-May-13 01:30N 36°08' W 005°26'0 0.0
2018-May-13 01:00N 36°08' W 005°26'1 1.9
2018-May-13 00:30N 36°09' W 005°26'5 9.3
2018-May-13 00:01N 36°04' W 005°24'815.2
2018-May-12 23:31N 35°57' W 005°27'610.6
2018-May-12 22:59N 35°53' W 005°31'0 0.0
2018-May-12 22:30N 35°53' W 005°31'0 0.0
2018-May-12 22:00N 35°53' W 005°31'0 0.1
2018-May-12 21:27N 35°53' W 005°31'4 6.6
2018-May-12 20:48N 35°57' W 005°31'413.1
2018-May-12 20:30N 35°59' W 005°27'713.3
2018-May-12 20:00N 36°06' W 005°24'3 1.6
2018-May-12 18:04N 36°08' W 005°26'1 7.9
2018-May-12 17:55N 36°09' W 005°26'3 7.0
2018-May-12 17:30N 36°07' W 005°24'714.3
2018-May-12 17:00N 35°60' W 005°25'8 6.6
2018-May-12 15:44N 35°53' W 005°31'0 0.0
2018-May-12 15:30N 35°53' W 005°31'4 2.6
2018-May-12 14:05N 35°56' W 005°30'113.3
2018-May-12 14:00N 35°57' W 005°29'611.6
2018-May-12 13:31N 36°01' W 005°24'612.9
2018-May-12 13:00N 36°08' W 005°24'2 1.0
2018-May-12 11:00N 36°09' W 005°26'612.3
2018-May-12 10:30N 36°03' W 005°23'714.5
2018-May-12 10:00N 35°57' W 005°28'2 0.6
2018-May-12 07:22N 35°57' W 005°30'412.4
2018-May-12 07:00N 36°00' W 005°27'612.9
2018-May-12 06:30N 36°06' W 005°24'3 2.8
2018-May-12 05:36N 36°08' W 005°26'0 0.0
2018-May-12 05:24N 36°08' W 005°26'0 0.0
2018-May-12 04:55N 36°08' W 005°26'0 0.0
2018-May-12 04:28N 36°08' W 005°26'0 0.0
2018-May-12 04:00N 36°08' W 005°26'0 0.0
2018-May-12 03:30N 36°08' W 005°26'0 0.0
2018-May-12 03:00N 36°08' W 005°26'0 0.0
2018-May-12 02:30N 36°08' W 005°26'0 0.0
2018-May-12 02:00N 36°08' W 005°26'0 0.0
2018-May-12 01:30N 36°08' W 005°26'0 0.0
2018-May-12 01:00N 36°08' W 005°26'0 0.0
2018-May-12 00:20N 36°08' W 005°26'0 0.0
2018-May-11 23:56N 36°08' W 005°26'2 3.7
2018-May-11 23:30N 36°09' W 005°25'713.7
2018-May-11 23:00N 36°02' W 005°24'8 2.7
2018-May-11 20:12N 35°56' W 005°30'313.4
2018-May-11 20:00N 35°59' W 005°28'613.0
2018-May-11 19:31N 36°04' W 005°24'4 8.9
2018-May-11 19:00N 36°08' W 005°26'0 0.3
2018-May-11 17:43N 36°08' W 005°26'1 5.9
2018-May-11 17:30N 36°09' W 005°26'510.9
2018-May-11 17:00N 36°04' W 005°23'815.1
2018-May-11 16:30N 35°57' W 005°28'1 0.5
2018-May-11 13:58N 35°57' W 005°29'612.6
2018-May-11 13:31N 36°02' W 005°25'713.4
2018-May-11 13:00N 36°08' W 005°24'2 0.8
2018-May-11 11:04N 36°08' W 005°26'  

Dump ship's entire track history